createdAt,value
2018-06-14T00:00:58.571Z,99059.06
2018-06-14T00:03:27.247Z,99062.87
2018-06-14T00:05:56.367Z,99055.39
2018-06-14T00:08:25.021Z,99065.72
2018-06-14T00:10:53.610Z,99061.14
2018-06-14T00:13:22.573Z,99066.56
2018-06-14T00:15:53.610Z,99060.89
2018-06-14T00:18:30.668Z,99075.20
2018-06-14T00:21:05.989Z,99070.91
2018-06-14T00:26:16.535Z,99102.81
2018-06-14T00:28:50.638Z,99072.95
2018-06-14T00:31:20.315Z,99075.14
2018-06-14T00:33:50.882Z,99083.50
2018-06-14T00:36:27.981Z,99079.45
2018-06-14T00:39:02.518Z,99088.53
2018-06-14T00:41:37.556Z,99106.16
2018-06-14T00:44:07.932Z,99087.15
2018-06-14T00:59:27.603Z,99098.91
2018-06-14T01:01:56.265Z,99095.44
2018-06-14T01:04:24.857Z,99092.86
2018-06-14T01:06:53.512Z,99103.09
2018-06-14T01:09:22.146Z,99099.36
2018-06-14T01:11:51.030Z,99103.09
2018-06-14T01:14:19.696Z,99113.69
2018-06-14T01:16:48.334Z,99104.61
2018-06-14T01:19:16.992Z,99113.50
2018-06-14T01:21:45.733Z,99102.08
2018-06-14T01:24:14.370Z,99102.91
2018-06-14T01:26:43.055Z,99095.80
2018-06-14T01:29:11.641Z,99096.15
2018-06-14T01:31:40.257Z,99109.37
2018-06-14T01:34:08.897Z,99102.55
2018-06-14T01:36:37.496Z,99097.44
2018-06-14T01:39:08.497Z,99092.98
2018-06-14T01:41:37.320Z,99114.93
2018-06-14T01:44:05.930Z,99101.45
2018-06-14T01:46:34.997Z,99110.73
2018-06-14T01:49:03.599Z,99099.36
2018-06-14T01:51:32.235Z,99120.14
2018-06-14T01:54:00.945Z,99103.77
2018-06-14T01:56:29.609Z,99115.45
2018-06-14T01:58:58.533Z,99099.58
2018-06-14T02:01:27.122Z,99099.17
2018-06-14T02:03:55.770Z,99112.08
2018-06-14T02:06:24.374Z,99104.11
2018-06-14T02:08:52.975Z,99102.69
2018-06-14T02:11:21.666Z,99124.98
2018-06-14T02:13:50.231Z,99124.72
2018-06-14T02:16:18.842Z,99117.87
2018-06-14T02:18:47.434Z,99118.53
2018-06-14T02:21:16.073Z,99111.06
2018-06-14T02:23:44.657Z,99112.92
2018-06-14T02:26:13.313Z,99120.32
2018-06-14T02:28:41.905Z,99122.09
2018-06-14T02:31:10.522Z,99127.78
2018-06-14T02:33:39.234Z,99117.41
2018-06-14T02:36:14.042Z,99117.20
2018-06-14T02:38:42.837Z,99150.95
2018-06-14T02:41:12.010Z,99125.38
2018-06-14T02:43:40.623Z,99111.94
2018-06-14T02:46:09.545Z,99137.52
2018-06-14T02:48:38.117Z,99154.24
2018-06-14T02:51:07.286Z,99129.65
2018-06-14T02:53:35.904Z,99135.94
2018-06-14T02:56:04.565Z,99148.37
2018-06-14T02:58:33.194Z,99157.91
2018-06-14T03:01:01.902Z,99163.34
2018-06-14T03:03:30.575Z,99148.84
2018-06-14T03:05:59.208Z,99161.92
2018-06-14T03:08:27.838Z,99175.59
2018-06-14T03:10:56.480Z,99140.76
2018-06-14T03:13:25.126Z,99150.02
2018-06-14T03:15:53.766Z,99136.62
2018-06-14T03:18:22.686Z,99152.09
2018-06-14T03:20:51.315Z,99143.34
2018-06-14T03:23:19.974Z,99140.02
2018-06-14T03:25:48.666Z,99141.66
2018-06-14T03:28:17.294Z,99153.79
2018-06-14T03:30:46.014Z,99156.89
2018-06-14T03:33:14.587Z,99158.10
2018-06-14T03:35:43.212Z,99163.64
2018-06-14T03:38:11.865Z,99168.75
2018-06-14T03:40:40.490Z,99162.87
2018-06-14T03:43:09.246Z,99166.11
2018-06-14T03:45:38.116Z,99181.27
2018-06-14T03:48:07.355Z,99161.27
2018-06-14T03:50:35.949Z,99155.32
2018-06-14T03:53:04.625Z,99169.83
2018-06-14T03:55:33.201Z,99160.16
2018-06-14T03:58:01.771Z,99161.92
2018-06-14T04:00:30.496Z,99171.02
2018-06-14T04:02:59.098Z,99168.08
2018-06-14T04:05:27.745Z,99177.06
2018-06-14T04:07:56.353Z,99175.83
2018-06-14T04:10:25.863Z,99175.98
2018-06-14T04:12:54.425Z,99217.57
2018-06-14T04:15:23.049Z,99187.73
2018-06-14T04:18:00.852Z,99187.20
2018-06-14T04:20:29.692Z,99235.11
2018-06-14T04:22:58.426Z,99186.63
2018-06-14T04:25:27.062Z,99210.34
2018-06-14T04:27:55.691Z,99179.33
2018-06-14T04:30:24.419Z,99201.50
2018-06-14T04:32:54.028Z,99186.94
2018-06-14T04:35:22.608Z,99180.23
2018-06-14T04:37:51.460Z,99219.58
2018-06-14T04:40:20.147Z,99193.01
2018-06-14T04:42:48.764Z,99199.38
2018-06-14T04:45:17.485Z,99191.97
2018-06-14T04:47:46.696Z,99206.47
2018-06-14T04:50:15.373Z,99217.44
2018-06-14T04:52:44.024Z,99249.19
2018-06-14T04:55:12.643Z,99196.06
2018-06-14T04:57:41.445Z,99225.83
2018-06-14T05:00:10.402Z,99219.09
2018-06-14T05:02:39.301Z,99229.56
2018-06-14T05:05:08.193Z,99201.62
2018-06-14T05:07:36.795Z,99221.96
2018-06-14T05:10:05.504Z,99229.52
2018-06-14T05:12:34.122Z,99223.97
2018-06-14T05:15:02.723Z,99213.11
2018-06-14T05:17:31.377Z,99211.50
2018-06-14T05:20:00.027Z,99231.63
2018-06-14T05:22:28.613Z,99222.98
2018-06-14T05:24:57.221Z,99224.98
2018-06-14T05:27:25.878Z,99217.11
2018-06-14T05:29:54.496Z,99238.55
2018-06-14T05:32:23.097Z,99230.48
2018-06-14T05:34:51.754Z,99243.94
2018-06-14T05:37:20.309Z,99238.77
2018-06-14T05:39:49.001Z,99237.80
2018-06-14T05:42:17.610Z,99245.22
2018-06-14T05:44:46.294Z,99237.22
2018-06-14T05:47:14.923Z,99236.47
2018-06-14T05:49:44.152Z,99232.45
2018-06-14T05:52:12.789Z,99235.70
2018-06-14T05:54:41.393Z,99264.01
2018-06-14T05:57:09.978Z,99235.75
2018-06-14T05:59:38.627Z,99241.61
2018-06-14T06:02:07.360Z,99240.02
2018-06-14T06:04:35.967Z,99243.77
2018-06-14T06:07:04.585Z,99260.73
2018-06-14T06:09:33.201Z,99261.45
2018-06-14T06:12:01.905Z,99259.17
2018-06-14T06:14:30.457Z,99254.50
2018-06-14T06:16:59.735Z,99270.94
2018-06-14T06:19:28.319Z,99274.80
2018-06-14T06:21:58.402Z,99278.54
2018-06-14T06:24:27.054Z,99295.33
2018-06-14T06:26:55.673Z,99271.78
2018-06-14T06:29:24.392Z,99266.99
2018-06-14T06:31:53.012Z,99285.20
2018-06-14T06:34:21.700Z,99275.17
2018-06-14T06:36:50.281Z,99278.28
2018-06-14T06:39:18.943Z,99270.66
2018-06-14T06:41:47.554Z,99280.85
2018-06-14T06:44:16.157Z,99299.70
2018-06-14T06:46:44.791Z,99292.27
2018-06-14T06:49:13.378Z,99286.68
2018-06-14T06:51:42.009Z,99299.53
2018-06-14T06:54:10.601Z,99287.09
2018-06-14T06:56:39.245Z,99294.79
2018-06-14T06:59:07.860Z,99294.08
2018-06-14T07:01:36.485Z,99277.92
2018-06-14T07:04:05.248Z,99279.66
2018-06-14T07:06:33.925Z,99292.23
2018-06-14T07:09:02.568Z,99287.63
2018-06-14T07:11:31.248Z,99282.69
2018-06-14T07:13:59.778Z,99287.09
2018-06-14T07:16:28.414Z,99286.36
2018-06-14T07:18:57.033Z,99286.29
2018-06-14T07:21:25.658Z,99292.19
2018-06-14T07:23:54.329Z,99298.84
2018-06-14T07:26:22.967Z,99288.05
2018-06-14T07:28:52.346Z,99285.05
2018-06-14T07:31:20.966Z,99302.78
2018-06-14T07:33:49.529Z,99309.80
2018-06-14T07:36:18.113Z,99301.72
2018-06-14T07:38:46.716Z,99314.91
2018-06-14T07:41:15.376Z,99317.38
2018-06-14T07:43:44.019Z,99316.25
2018-06-14T07:46:12.812Z,99329.23
2018-06-14T07:48:41.441Z,99310.55
2018-06-14T07:51:10.225Z,99320.80
2018-06-14T07:53:39.025Z,99315.34
2018-06-14T07:56:07.705Z,99321.70
2018-06-14T07:58:36.572Z,99312.44
2018-06-14T08:01:05.217Z,99313.19
2018-06-14T08:03:33.809Z,99322.57
2018-06-14T08:06:02.411Z,99316.41
2018-06-14T08:08:31.166Z,99315.34
2018-06-14T08:10:59.838Z,99322.69
2018-06-14T08:13:28.462Z,99322.81
2018-06-14T08:15:57.080Z,99339.94
2018-06-14T08:18:25.752Z,99320.25
2018-06-14T08:20:54.363Z,99328.17
2018-06-14T08:23:23.045Z,99318.83
2018-06-14T08:25:51.675Z,99331.75
2018-06-14T08:28:20.323Z,99326.29
2018-06-14T08:30:49.022Z,99324.95
2018-06-14T08:33:17.680Z,99325.35
2018-06-14T08:35:46.354Z,99323.14
2018-06-14T08:38:15.051Z,99317.13
2018-06-14T08:40:43.773Z,99322.92
2018-06-14T08:43:12.440Z,99335.89
2018-06-14T08:45:41.220Z,99312.97
2018-06-14T08:48:09.979Z,99342.51
2018-06-14T08:50:38.646Z,99337.90
2018-06-14T08:53:07.351Z,99320.09
2018-06-14T08:55:36.001Z,99321.01
2018-06-14T08:58:04.722Z,99319.32
2018-06-14T09:00:34.042Z,99322.71
2018-06-14T09:03:02.721Z,99324.23
2018-06-14T09:05:31.295Z,99315.16
2018-06-14T09:08:00.023Z,99335.30
2018-06-14T09:10:28.704Z,99327.63
2018-06-14T09:12:57.374Z,99314.97
2018-06-14T09:15:26.038Z,99324.79
2018-06-14T09:17:54.687Z,99326.17
2018-06-14T09:20:23.365Z,99321.08
2018-06-14T09:22:52.113Z,99319.24
2018-06-14T09:25:21.777Z,99328.37
2018-06-14T09:27:50.455Z,99327.42
2018-06-14T09:30:19.130Z,99318.31
2018-06-14T09:32:47.733Z,99323.07
2018-06-14T09:35:16.422Z,99324.38
2018-06-14T09:37:45.084Z,99321.76
2018-06-14T09:40:13.770Z,99316.19
2018-06-14T09:42:42.511Z,99313.95
2018-06-14T09:45:11.142Z,99324.45
2018-06-14T09:47:40.033Z,99322.87
2018-06-14T09:50:08.647Z,99330.16
2018-06-14T09:52:37.261Z,99323.98
2018-06-14T09:55:05.921Z,99340.23
2018-06-14T09:57:34.631Z,99332.90
2018-06-14T10:00:03.316Z,99343.75
2018-06-14T10:02:32.794Z,99328.63
2018-06-14T10:05:01.519Z,99323.48
2018-06-14T10:07:30.155Z,99327.17
2018-06-14T10:09:58.802Z,99343.50
2018-06-14T10:12:27.413Z,99328.34
2018-06-14T10:14:56.126Z,99324.70
2018-06-14T10:17:24.849Z,99324.16
2018-06-14T10:19:53.746Z,99323.22
2018-06-14T10:22:22.361Z,99327.91
2018-06-14T10:24:51.082Z,99328.77
2018-06-14T10:27:19.751Z,99324.08
2018-06-14T10:29:48.566Z,99318.72
2018-06-14T10:32:18.931Z,99332.71
2018-06-14T10:34:47.630Z,99326.81
2018-06-14T10:37:16.348Z,99324.54
2018-06-14T10:39:45.041Z,99325.03
2018-06-14T10:42:13.732Z,99319.91
2018-06-14T10:44:42.400Z,99353.92
2018-06-14T10:47:11.654Z,99325.13
2018-06-14T10:49:40.719Z,99315.94
2018-06-14T10:52:09.484Z,99330.33
2018-06-14T10:54:39.276Z,99323.78
2018-06-14T10:57:09.238Z,99327.01
2018-06-14T10:59:37.935Z,99315.64
2018-06-14T11:02:06.628Z,99320.69
2018-06-14T11:04:35.260Z,99328.32
2018-06-14T11:07:03.983Z,99319.80
2018-06-14T11:09:32.742Z,99320.00
2018-06-14T11:12:01.441Z,99319.86
2018-06-14T11:14:30.217Z,99311.98
2018-06-14T11:16:58.828Z,99304.69
2018-06-14T11:19:27.673Z,99338.89
2018-06-14T11:21:56.391Z,99312.34
2018-06-14T11:24:25.037Z,99320.73
2018-06-14T11:26:53.758Z,99320.72
2018-06-14T11:29:22.442Z,99320.41
2018-06-14T11:31:51.159Z,99314.77
2018-06-14T11:34:19.902Z,99314.23
2018-06-14T11:36:53.284Z,99329.30
2018-06-14T11:39:31.311Z,99310.38
2018-06-14T11:42:00.437Z,99312.16
2018-06-14T11:47:06.492Z,99306.65
2018-06-14T11:49:35.395Z,99307.68
2018-06-14T11:52:04.895Z,99312.88
2018-06-14T11:54:34.296Z,99309.55
2018-06-14T11:57:03.163Z,99296.63
2018-06-14T11:59:32.107Z,99303.00
2018-06-14T12:02:01.597Z,99294.09
2018-06-14T12:04:30.809Z,99299.14
2018-06-14T12:06:59.693Z,99298.50
2018-06-14T12:09:28.449Z,99297.28
2018-06-14T12:11:57.226Z,99288.05
2018-06-14T12:14:25.914Z,99282.13
2018-06-14T12:16:54.771Z,99294.50
2018-06-14T12:19:23.530Z,99281.97
2018-06-14T12:21:58.687Z,99276.91
2018-06-14T12:27:05.853Z,99285.57
2018-06-14T12:29:34.593Z,99278.97
2018-06-14T12:32:03.265Z,99267.34
2018-06-14T12:34:31.991Z,99283.05
2018-06-14T12:37:00.718Z,99269.14
2018-06-14T12:39:29.471Z,99259.33
2018-06-14T12:41:58.229Z,99264.52
2018-06-14T12:44:27.426Z,99272.86
2018-06-14T12:46:56.213Z,99276.91
2018-06-14T12:49:24.952Z,99265.83
2018-06-14T12:51:53.991Z,99254.86
2018-06-14T12:54:22.769Z,99275.15
2018-06-14T12:56:51.574Z,99281.15
2018-06-14T12:59:20.324Z,99261.13
2018-06-14T13:01:49.048Z,99246.11
2018-06-14T13:04:18.243Z,99246.09
2018-06-14T13:06:47.090Z,99254.56
2018-06-14T13:09:16.001Z,99245.98
2018-06-14T13:11:44.798Z,99251.12
2018-06-14T13:14:13.596Z,99248.02
2018-06-14T13:16:42.320Z,99248.89
2018-06-14T13:19:11.084Z,99242.92
2018-06-14T13:21:40.500Z,99252.67
2018-06-14T13:24:09.618Z,99252.06
2018-06-14T13:26:39.723Z,99255.30
2018-06-14T13:41:58.762Z,99246.17
2018-06-14T13:44:27.510Z,99243.85
2018-06-14T13:46:56.216Z,99229.84
2018-06-14T13:49:25.010Z,99225.34
2018-06-14T13:51:55.141Z,99239.59
2018-06-14T13:54:23.986Z,99224.97
2018-06-14T13:56:52.787Z,99251.13
2018-06-14T13:59:21.580Z,99226.91
2018-06-14T14:01:50.365Z,99219.76
2018-06-14T14:04:19.126Z,99226.58
2018-06-14T14:06:48.002Z,99222.42
2018-06-14T14:09:16.706Z,99226.70
2018-06-14T14:11:45.464Z,99219.05
2018-06-14T14:14:14.145Z,99221.64
2018-06-14T14:16:42.806Z,99225.46
2018-06-14T14:19:11.450Z,99225.38
2018-06-14T14:21:40.074Z,99214.39
2018-06-14T14:24:08.797Z,99226.36
2018-06-14T14:26:37.722Z,99217.42
2018-06-14T14:29:06.445Z,99220.81
2018-06-14T14:31:35.129Z,99212.22
2018-06-14T14:34:03.971Z,99220.38
2018-06-14T14:36:33.237Z,99227.16
2018-06-14T14:39:01.916Z,99217.03
2018-06-14T14:41:30.603Z,99215.81
2018-06-14T14:43:59.271Z,99214.66
2018-06-14T14:46:27.968Z,99202.16
2018-06-14T14:48:56.650Z,99210.31
2018-06-14T14:51:25.337Z,99208.82
2018-06-14T14:53:54.229Z,99208.91
2018-06-14T14:56:22.858Z,99200.46
2018-06-14T14:58:51.526Z,99211.26
2018-06-14T15:01:20.167Z,99209.23
2018-06-14T15:03:48.822Z,99204.67
2018-06-14T15:06:18.484Z,99205.70
2018-06-14T15:08:47.281Z,99206.34
2018-06-14T15:11:16.027Z,99202.98
2018-06-14T15:13:44.654Z,99204.11
2018-06-14T15:16:13.334Z,99203.31
2018-06-14T15:18:42.017Z,99201.33
2018-06-14T15:21:10.643Z,99192.33
2018-06-14T15:23:39.259Z,99205.49
2018-06-14T15:26:08.093Z,99201.02
2018-06-14T15:28:36.750Z,99206.20
2018-06-14T15:31:05.406Z,99209.14
2018-06-14T15:33:34.121Z,99207.00
2018-06-14T15:36:02.832Z,99214.48
2018-06-14T15:38:31.510Z,99203.23
2018-06-14T15:41:00.175Z,99214.61
2018-06-14T15:43:28.806Z,99212.80
2018-06-14T15:45:57.478Z,99214.35
2018-06-14T15:48:26.818Z,99210.65
2018-06-14T15:50:55.512Z,99196.91
2018-06-14T15:53:24.195Z,99198.31
2018-06-14T15:56:07.289Z,99205.42
2018-06-14T15:58:35.977Z,99202.77
2018-06-14T16:01:05.090Z,99203.91
2018-06-14T16:03:33.779Z,99203.38
2018-06-14T16:06:02.687Z,99205.88
2018-06-14T16:08:31.686Z,99228.52
2018-06-14T16:11:00.370Z,99221.26
2018-06-14T16:13:29.051Z,99212.01
2018-06-14T16:15:57.733Z,99201.21
2018-06-14T16:18:26.439Z,99208.83
2018-06-14T16:20:55.150Z,99206.98
2018-06-14T16:23:23.882Z,99216.30
2018-06-14T16:25:52.599Z,99227.06
2018-06-14T16:28:21.327Z,99206.70
2018-06-14T16:30:49.950Z,99217.08
2018-06-14T16:33:18.635Z,99220.62
2018-06-14T16:35:47.287Z,99229.81
2018-06-14T16:38:15.969Z,99230.70
2018-06-14T16:40:44.634Z,99225.80
2018-06-14T16:43:13.334Z,99218.19
2018-06-14T16:45:41.987Z,99229.28
2018-06-14T16:48:10.694Z,99210.19
2018-06-14T16:50:39.347Z,99232.33
2018-06-14T16:53:07.985Z,99221.77
2018-06-14T16:55:36.631Z,99235.62
2018-06-14T16:58:05.401Z,99221.07
2018-06-14T17:00:34.050Z,99250.17
2018-06-14T17:03:02.753Z,99242.20
2018-06-14T17:05:31.962Z,99229.13
2018-06-14T17:08:00.637Z,99225.57
2018-06-14T17:10:29.238Z,99231.03
2018-06-14T17:12:57.848Z,99233.42
2018-06-14T17:15:26.482Z,99235.10
2018-06-14T17:17:55.113Z,99234.20
2018-06-14T17:20:23.771Z,99231.20
2018-06-14T17:22:52.357Z,99233.80
2018-06-14T17:25:21.743Z,99237.58
2018-06-14T17:27:50.362Z,99234.42
2018-06-14T17:30:19.052Z,99249.04
2018-06-14T17:32:47.731Z,99233.58
2018-06-14T17:35:16.405Z,99240.56
2018-06-14T17:37:45.092Z,99251.27
2018-06-14T17:40:13.746Z,99270.27
2018-06-14T17:42:42.423Z,99253.97
2018-06-14T17:45:11.655Z,99251.25
2018-06-14T17:47:40.316Z,99253.95
2018-06-14T17:50:09.066Z,99260.66
2018-06-14T17:52:37.686Z,99264.61
2018-06-14T17:55:06.377Z,99253.30
2018-06-14T17:57:35.244Z,99257.31
2018-06-14T18:00:03.969Z,99259.13
2018-06-14T18:02:32.593Z,99251.65
2018-06-14T18:05:01.292Z,99264.94
2018-06-14T18:07:31.635Z,99256.67
2018-06-14T18:10:03.505Z,99267.52
2018-06-14T18:12:32.793Z,99261.23
2018-06-14T18:15:01.458Z,99280.55
2018-06-14T18:17:30.118Z,99265.16
2018-06-14T18:19:58.831Z,99261.34
2018-06-14T18:22:27.482Z,99263.73
2018-06-14T18:24:56.143Z,99269.11
2018-06-14T18:27:24.820Z,99290.95
2018-06-14T18:29:53.479Z,99289.25
2018-06-14T18:32:22.133Z,99274.56
2018-06-14T18:34:50.805Z,99282.81
2018-06-14T18:37:19.550Z,99277.94
2018-06-14T18:39:48.194Z,99288.08
2018-06-14T18:42:16.825Z,99283.13
2018-06-14T18:44:45.483Z,99303.31
2018-06-14T18:47:14.195Z,99290.38
2018-06-14T18:49:42.833Z,99289.86
2018-06-14T18:52:11.423Z,99310.19
2018-06-14T18:54:40.049Z,99307.30
2018-06-14T18:57:08.706Z,99316.38
2018-06-14T18:59:38.089Z,99315.77
2018-06-14T19:02:06.750Z,99319.35
2018-06-14T19:04:35.385Z,99318.95
2018-06-14T19:07:04.069Z,99320.46
2018-06-14T19:09:32.739Z,99320.09
2018-06-14T19:12:01.329Z,99311.58
2018-06-14T19:14:30.032Z,99325.28
2018-06-14T19:16:58.701Z,99348.19
2018-06-14T19:19:27.350Z,99337.67
2018-06-14T19:21:56.050Z,99325.27
2018-06-14T19:24:24.719Z,99338.75
2018-06-14T19:26:53.347Z,99355.09
2018-06-14T19:29:22.285Z,99347.32
2018-06-14T19:31:50.946Z,99343.23
2018-06-14T19:34:19.656Z,99370.40
2018-06-14T19:36:48.297Z,99351.44
2018-06-14T19:39:16.909Z,99357.98
2018-06-14T19:41:45.599Z,99344.57
2018-06-14T19:44:14.256Z,99359.95
2018-06-14T19:46:42.908Z,99348.88
2018-06-14T19:49:11.524Z,99350.99
2018-06-14T19:51:40.149Z,99344.50
2018-06-14T19:54:08.838Z,99354.20
2018-06-14T19:56:39.496Z,99347.73
2018-06-14T20:12:04.103Z,99355.28
2018-06-14T20:14:32.822Z,99350.11
2018-06-14T20:17:01.490Z,99368.88
2018-06-14T20:19:30.141Z,99357.87
2018-06-14T20:21:59.732Z,99362.19
2018-06-14T20:24:28.932Z,99355.47
2018-06-14T20:26:59.822Z,99358.93
2018-06-14T20:29:28.492Z,99358.81
2018-06-14T20:31:57.227Z,99361.63
2018-06-14T20:34:25.980Z,99363.37
2018-06-14T20:36:54.892Z,99376.70
2018-06-14T20:39:23.732Z,99378.58
2018-06-14T20:41:52.409Z,99377.91
2018-06-14T20:44:21.841Z,99383.16
2018-06-14T20:46:50.530Z,99380.71
2018-06-14T20:49:19.150Z,99385.71
2018-06-14T20:51:47.802Z,99389.95
2018-06-14T20:54:16.388Z,99396.19
2018-06-14T20:56:45.055Z,99403.73
2018-06-14T20:59:13.694Z,99394.90
2018-06-14T21:01:42.321Z,99392.36
2018-06-14T21:04:11.847Z,99392.00
2018-06-14T21:06:41.161Z,99386.44
2018-06-14T21:09:10.845Z,99403.64
2018-06-14T21:11:39.565Z,99392.01
2018-06-14T21:14:08.249Z,99403.95
2018-06-14T21:16:37.754Z,99391.60
2018-06-14T21:19:06.558Z,99401.38
2018-06-14T21:21:35.262Z,99420.84
2018-06-14T21:24:03.914Z,99402.12
2018-06-14T21:26:32.577Z,99396.68
2018-06-14T21:29:03.122Z,99407.73
2018-06-14T21:31:31.806Z,99398.37
2018-06-14T21:34:00.458Z,99398.32
2018-06-14T21:36:30.532Z,99399.80
2018-06-14T21:38:59.488Z,99394.70
2018-06-14T21:41:28.098Z,99399.03
2018-06-14T21:43:56.753Z,99428.09
2018-06-14T21:46:25.377Z,99402.86
2018-06-14T21:48:54.087Z,99407.76
2018-06-14T21:51:22.696Z,99411.70
2018-06-14T21:53:51.348Z,99414.63
2018-06-14T21:56:19.945Z,99399.11
2018-06-14T21:58:48.713Z,99402.41
2018-06-14T22:01:17.438Z,99422.19
2018-06-14T22:03:51.260Z,99409.92
2018-06-14T22:06:19.787Z,99411.03
2018-06-14T22:08:48.416Z,99419.16
2018-06-14T22:11:17.064Z,99430.06
2018-06-14T22:13:45.719Z,99415.28
2018-06-14T22:16:14.425Z,99407.95
2018-06-14T22:18:43.123Z,99408.75
2018-06-14T22:21:11.801Z,99419.31
2018-06-14T22:23:40.454Z,99407.42
2018-06-14T22:26:09.173Z,99423.45
2018-06-14T22:28:37.764Z,99415.09
2018-06-14T22:31:06.478Z,99413.75
2018-06-14T22:33:46.048Z,99404.52
2018-06-14T22:36:14.659Z,99400.06
2018-06-14T22:38:43.297Z,99392.63
2018-06-14T22:41:12.009Z,99393.92
2018-06-14T22:43:40.649Z,99387.23
2018-06-14T22:46:09.270Z,99387.96
2018-06-14T22:48:37.865Z,99392.11
2018-06-14T22:51:19.273Z,99385.86
2018-06-14T22:53:47.954Z,99398.04
2018-06-14T22:56:16.595Z,99389.59
2018-06-14T22:58:45.651Z,99385.50
2018-06-14T23:01:48.448Z,99389.80
2018-06-14T23:04:27.848Z,99385.84
2018-06-14T23:06:56.769Z,99387.66
2018-06-14T23:10:39.156Z,99394.90
2018-06-14T23:13:08.906Z,99382.74
2018-06-14T23:15:40.443Z,99381.79
2018-06-14T23:18:09.754Z,99384.04
2018-06-14T23:20:38.594Z,99389.33
2018-06-14T23:23:07.794Z,99392.74
2018-06-14T23:25:37.058Z,99384.16
2018-06-14T23:28:06.411Z,99390.81
2018-06-14T23:30:35.111Z,99384.95
2018-06-14T23:33:03.877Z,99389.77
2018-06-14T23:35:32.695Z,99395.07
2018-06-14T23:38:01.642Z,99399.65
2018-06-14T23:40:32.050Z,99397.73
2018-06-14T23:43:00.866Z,99394.55
2018-06-14T23:45:30.203Z,99395.34
2018-06-14T23:47:58.810Z,99399.59
2018-06-14T23:50:27.431Z,99397.67
2018-06-14T23:52:56.138Z,99407.91
2018-06-14T23:55:25.371Z,99404.75
2018-06-14T23:57:54.007Z,99408.23
